sensor_id;sensor_type;location;lat;lon;timestamp;P1;durP1;ratioP1;P2;durP2;ratioP2
37065;SDS011;22981;43.080;25.550;2024-01-15T00:00:08;92.02;;;46.95;;
37065;SDS011;22981;43.080;25.550;2024-01-15T00:02:36;103.35;;;51.60;;
37065;SDS011;22981;43.080;25.550;2024-01-15T00:05:04;85.35;;;45.20;;
37065;SDS011;22981;43.080;25.550;2024-01-15T00:07:31;78.02;;;41.00;;
37065;SDS011;22981;43.080;25.550;2024-01-15T00:09:59;47.85;;;27.62;;
37065;SDS011;22981;43.080;25.550;2024-01-15T00:12:27;46.05;;;27.40;;
37065;SDS011;22981;43.080;25.550;2024-01-15T00:14:54;60.28;;;33.55;;
37065;SDS011;22981;43.080;25.550;2024-01-15T00:17:22;61.77;;;33.75;;
37065;SDS011;22981;43.080;25.550;2024-01-15T00:19:49;61.90;;;33.85;;
37065;SDS011;22981;43.080;25.550;2024-01-15T00:22:18;57.25;;;34.75;;
37065;SDS011;22981;43.080;25.550;2024-01-15T00:24:46;53.65;;;31.27;;
37065;SDS011;22981;43.080;25.550;2024-01-15T00:27:13;48.80;;;29.45;;
37065;SDS011;22981;43.080;25.550;2024-01-15T00:29:41;50.38;;;30.72;;
37065;SDS011;22981;43.080;25.550;2024-01-15T00:32:08;52.78;;;30.10;;
37065;SDS011;22981;43.080;25.550;2024-01-15T00:34:36;52.73;;;31.17;;
37065;SDS011;22981;43.080;25.550;2024-01-15T00:37:03;62.03;;;34.80;;
37065;SDS011;22981;43.080;25.550;2024-01-15T00:39:32;61.50;;;33.92;;
37065;SDS011;22981;43.080;25.550;2024-01-15T00:42:01;71.87;;;40.03;;
37065;SDS011;22981;43.080;25.550;2024-01-15T00:44:28;63.87;;;37.17;;
37065;SDS011;22981;43.080;25.550;2024-01-15T00:46:56;68.75;;;37.50;;
37065;SDS011;22981;43.080;25.550;2024-01-15T00:49:23;69.45;;;37.53;;
37065;SDS011;22981;43.080;25.550;2024-01-15T00:51:52;53.73;;;30.62;;
37065;SDS011;22981;43.080;25.550;2024-01-15T00:54:20;48.80;;;29.77;;
37065;SDS011;22981;43.080;25.550;2024-01-15T00:56:47;55.45;;;32.13;;
37065;SDS011;22981;43.080;25.550;2024-01-15T00:59:15;63.85;;;36.85;;
37065;SDS011;22981;43.080;25.550;2024-01-15T01:01:43;64.72;;;35.00;;
37065;SDS011;22981;43.080;25.550;2024-01-15T01:04:11;63.33;;;35.25;;
37065;SDS011;22981;43.080;25.550;2024-01-15T01:06:39;64.17;;;36.33;;
37065;SDS011;22981;43.080;25.550;2024-01-15T01:09:07;80.62;;;42.25;;
37065;SDS011;22981;43.080;25.550;2024-01-15T01:11:34;140.20;;;69.47;;
37065;SDS011;22981;43.080;25.550;2024-01-15T01:14:02;129.87;;;64.32;;
37065;SDS011;22981;43.080;25.550;2024-01-15T01:16:29;101.87;;;54.80;;
37065;SDS011;22981;43.080;25.550;2024-01-15T01:18:58;70.35;;;40.15;;
37065;SDS011;22981;43.080;25.550;2024-01-15T01:21:26;67.35;;;37.90;;
37065;SDS011;22981;43.080;25.550;2024-01-15T01:23:54;68.60;;;37.95;;
37065;SDS011;22981;43.080;25.550;2024-01-15T01:26:21;84.70;;;43.92;;
37065;SDS011;22981;43.080;25.550;2024-01-15T01:28:49;51.42;;;31.20;;
37065;SDS011;22981;43.080;25.550;2024-01-15T01:31:16;43.95;;;26.85;;
37065;SDS011;22981;43.080;25.550;2024-01-15T01:33:44;50.08;;;29.40;;
37065;SDS011;22981;43.080;25.550;2024-01-15T01:36:11;49.90;;;28.20;;
37065;SDS011;22981;43.080;25.550;2024-01-15T01:38:39;47.70;;;29.60;;
37065;SDS011;22981;43.080;25.550;2024-01-15T01:41:07;54.27;;;30.62;;
37065;SDS011;22981;43.080;25.550;2024-01-15T01:43:36;52.20;;;29.90;;
37065;SDS011;22981;43.080;25.550;2024-01-15T01:46:04;54.90;;;30.97;;
37065;SDS011;22981;43.080;25.550;2024-01-15T01:48:33;54.48;;;30.75;;
37065;SDS011;22981;43.080;25.550;2024-01-15T01:51:02;57.05;;;31.75;;
37065;SDS011;22981;43.080;25.550;2024-01-15T01:53:31;60.55;;;34.23;;
37065;SDS011;22981;43.080;25.550;2024-01-15T01:56:00;64.60;;;35.05;;
37065;SDS011;22981;43.080;25.550;2024-01-15T01:58:29;45.40;;;26.62;;
37065;SDS011;22981;43.080;25.550;2024-01-15T02:00:58;45.17;;;25.55;;
37065;SDS011;22981;43.080;25.550;2024-01-15T02:03:31;48.70;;;27.05;;
37065;SDS011;22981;43.080;25.550;2024-01-15T02:05:56;62.95;;;33.38;;
37065;SDS011;22981;43.080;25.550;2024-01-15T02:08:26;61.80;;;32.88;;
37065;SDS011;22981;43.080;25.550;2024-01-15T02:10:54;57.88;;;33.65;;
37065;SDS011;22981;43.080;25.550;2024-01-15T02:13:21;63.58;;;33.58;;
37065;SDS011;22981;43.080;25.550;2024-01-15T02:15:49;60.65;;;32.67;;
37065;SDS011;22981;43.080;25.550;2024-01-15T02:18:16;54.08;;;29.50;;
37065;SDS011;22981;43.080;25.550;2024-01-15T02:20:44;54.95;;;30.52;;
37065;SDS011;22981;43.080;25.550;2024-01-15T02:23:12;52.67;;;28.50;;
37065;SDS011;22981;43.080;25.550;2024-01-15T02:25:44;53.30;;;27.62;;
37065;SDS011;22981;43.080;25.550;2024-01-15T02:28:14;57.70;;;30.85;;
37065;SDS011;22981;43.080;25.550;2024-01-15T02:30:42;59.88;;;31.40;;
37065;SDS011;22981;43.080;25.550;2024-01-15T02:33:11;52.58;;;29.90;;
37065;SDS011;22981;43.080;25.550;2024-01-15T02:35:38;45.60;;;24.65;;
37065;SDS011;22981;43.080;25.550;2024-01-15T02:38:06;70.17;;;32.15;;
37065;SDS011;22981;43.080;25.550;2024-01-15T02:40:34;72.53;;;34.35;;
37065;SDS011;22981;43.080;25.550;2024-01-15T02:43:02;78.25;;;36.28;;
37065;SDS011;22981;43.080;25.550;2024-01-15T02:45:30;76.10;;;36.58;;
37065;SDS011;22981;43.080;25.550;2024-01-15T02:47:57;67.50;;;33.45;;
37065;SDS011;22981;43.080;25.550;2024-01-15T02:50:25;64.80;;;31.62;;
37065;SDS011;22981;43.080;25.550;2024-01-15T02:52:52;59.83;;;30.60;;
37065;SDS011;22981;43.080;25.550;2024-01-15T02:55:20;60.65;;;29.63;;
37065;SDS011;22981;43.080;25.550;2024-01-15T02:57:47;57.40;;;31.87;;
37065;SDS011;22981;43.080;25.550;2024-01-15T03:00:15;52.67;;;32.38;;
37065;SDS011;22981;43.080;25.550;2024-01-15T03:02:44;45.00;;;29.15;;
37065;SDS011;22981;43.080;25.550;2024-01-15T03:05:12;50.03;;;29.02;;
37065;SDS011;22981;43.080;25.550;2024-01-15T03:07:39;47.75;;;29.52;;
37065;SDS011;22981;43.080;25.550;2024-01-15T03:10:07;146.80;;;59.13;;
37065;SDS011;22981;43.080;25.550;2024-01-15T03:12:35;135.93;;;56.42;;
37065;SDS011;22981;43.080;25.550;2024-01-15T03:15:02;136.47;;;56.90;;
37065;SDS011;22981;43.080;25.550;2024-01-15T03:17:30;226.65;;;78.87;;
37065;SDS011;22981;43.080;25.550;2024-01-15T03:19:58;143.17;;;55.15;;
37065;SDS011;22981;43.080;25.550;2024-01-15T03:22:25;68.07;;;37.00;;
37065;SDS011;22981;43.080;25.550;2024-01-15T03:24:53;77.42;;;37.05;;
37065;SDS011;22981;43.080;25.550;2024-01-15T03:27:20;77.10;;;38.13;;
37065;SDS011;22981;43.080;25.550;2024-01-15T03:29:48;78.90;;;38.90;;
37065;SDS011;22981;43.080;25.550;2024-01-15T03:32:15;75.62;;;38.90;;
37065;SDS011;22981;43.080;25.550;2024-01-15T03:34:43;81.92;;;40.65;;
37065;SDS011;22981;43.080;25.550;2024-01-15T03:37:12;80.90;;;40.15;;
37065;SDS011;22981;43.080;25.550;2024-01-15T03:39:40;75.47;;;40.05;;
37065;SDS011;22981;43.080;25.550;2024-01-15T03:42:07;80.28;;;41.00;;
37065;SDS011;22981;43.080;25.550;2024-01-15T03:44:35;82.62;;;43.10;;
37065;SDS011;22981;43.080;25.550;2024-01-15T03:47:02;78.52;;;40.52;;
37065;SDS011;22981;43.080;25.550;2024-01-15T03:49:30;64.10;;;35.23;;
37065;SDS011;22981;43.080;25.550;2024-01-15T03:51:58;54.93;;;33.85;;
37065;SDS011;22981;43.080;25.550;2024-01-15T03:54:25;55.05;;;32.58;;
37065;SDS011;22981;43.080;25.550;2024-01-15T03:56:53;56.68;;;31.68;;
37065;SDS011;22981;43.080;25.550;2024-01-15T03:59:20;55.85;;;32.70;;
37065;SDS011;22981;43.080;25.550;2024-01-15T04:01:48;80.12;;;39.30;;
37065;SDS011;22981;43.080;25.550;2024-01-15T04:04:16;73.35;;;39.65;;
37065;SDS011;22981;43.080;25.550;2024-01-15T04:06:44;71.92;;;38.48;;
37065;SDS011;22981;43.080;25.550;2024-01-15T04:09:12;69.62;;;37.17;;
37065;SDS011;22981;43.080;25.550;2024-01-15T04:11:40;62.45;;;36.33;;
37065;SDS011;22981;43.080;25.550;2024-01-15T04:14:08;63.00;;;35.73;;
37065;SDS011;22981;43.080;25.550;2024-01-15T04:16:37;52.83;;;28.83;;
37065;SDS011;22981;43.080;25.550;2024-01-15T04:19:04;47.95;;;26.50;;
37065;SDS011;22981;43.080;25.550;2024-01-15T04:21:32;49.03;;;28.07;;
37065;SDS011;22981;43.080;25.550;2024-01-15T04:23:59;55.58;;;32.38;;
37065;SDS011;22981;43.080;25.550;2024-01-15T04:26:27;55.70;;;31.50;;
37065;SDS011;22981;43.080;25.550;2024-01-15T04:28:54;49.93;;;30.30;;
37065;SDS011;22981;43.080;25.550;2024-01-15T04:31:22;48.23;;;27.35;;
37065;SDS011;22981;43.080;25.550;2024-01-15T04:33:52;48.58;;;25.30;;
37065;SDS011;22981;43.080;25.550;2024-01-15T04:36:20;42.10;;;21.62;;
37065;SDS011;22981;43.080;25.550;2024-01-15T04:38:47;31.60;;;19.25;;
37065;SDS011;22981;43.080;25.550;2024-01-15T04:41:15;40.98;;;24.12;;
37065;SDS011;22981;43.080;25.550;2024-01-15T04:43:43;54.10;;;28.60;;
37065;SDS011;22981;43.080;25.550;2024-01-15T04:46:11;48.15;;;26.45;;
37065;SDS011;22981;43.080;25.550;2024-01-15T04:48:38;44.40;;;26.02;;
37065;SDS011;22981;43.080;25.550;2024-01-15T04:51:08;47.25;;;25.05;;
37065;SDS011;22981;43.080;25.550;2024-01-15T04:53:36;49.27;;;25.57;;
37065;SDS011;22981;43.080;25.550;2024-01-15T04:56:03;53.42;;;29.60;;
37065;SDS011;22981;43.080;25.550;2024-01-15T04:58:31;57.13;;;30.80;;
37065;SDS011;22981;43.080;25.550;2024-01-15T05:00:58;52.30;;;29.95;;
37065;SDS011;22981;43.080;25.550;2024-01-15T05:03:26;48.10;;;30.55;;
37065;SDS011;22981;43.080;25.550;2024-01-15T05:05:53;55.28;;;31.10;;
37065;SDS011;22981;43.080;25.550;2024-01-15T05:08:21;57.03;;;33.78;;
37065;SDS011;22981;43.080;25.550;2024-01-15T05:10:49;76.85;;;39.18;;
37065;SDS011;22981;43.080;25.550;2024-01-15T05:13:16;71.05;;;38.92;;
37065;SDS011;22981;43.080;25.550;2024-01-15T05:15:44;52.38;;;31.87;;
37065;SDS011;22981;43.080;25.550;2024-01-15T05:18:11;61.98;;;36.03;;
37065;SDS011;22981;43.080;25.550;2024-01-15T05:20:39;56.08;;;32.80;;
37065;SDS011;22981;43.080;25.550;2024-01-15T05:23:07;57.33;;;30.50;;
37065;SDS011;22981;43.080;25.550;2024-01-15T05:25:35;47.08;;;25.97;;
37065;SDS011;22981;43.080;25.550;2024-01-15T05:28:03;46.13;;;25.57;;
37065;SDS011;22981;43.080;25.550;2024-01-15T05:30:31;47.50;;;28.98;;
37065;SDS011;22981;43.080;25.550;2024-01-15T05:32:58;43.87;;;27.27;;
37065;SDS011;22981;43.080;25.550;2024-01-15T05:35:26;52.03;;;28.40;;
37065;SDS011;22981;43.080;25.550;2024-01-15T05:37:54;53.28;;;29.70;;
37065;SDS011;22981;43.080;25.550;2024-01-15T05:40:22;51.90;;;27.17;;
37065;SDS011;22981;43.080;25.550;2024-01-15T05:42:49;46.13;;;27.02;;
37065;SDS011;22981;43.080;25.550;2024-01-15T05:45:17;56.23;;;27.27;;
37065;SDS011;22981;43.080;25.550;2024-01-15T05:47:44;48.13;;;27.30;;
37065;SDS011;22981;43.080;25.550;2024-01-15T05:50:12;46.90;;;27.20;;
37065;SDS011;22981;43.080;25.550;2024-01-15T05:52:40;51.77;;;27.95;;
37065;SDS011;22981;43.080;25.550;2024-01-15T05:55:07;49.35;;;27.25;;
37065;SDS011;22981;43.080;25.550;2024-01-15T05:57:36;60.50;;;30.95;;
37065;SDS011;22981;43.080;25.550;2024-01-15T06:00:04;58.02;;;30.75;;
37065;SDS011;22981;43.080;25.550;2024-01-15T06:02:32;61.40;;;31.93;;
37065;SDS011;22981;43.080;25.550;2024-01-15T06:04:59;49.10;;;27.37;;
37065;SDS011;22981;43.080;25.550;2024-01-15T06:07:28;44.18;;;26.42;;
37065;SDS011;22981;43.080;25.550;2024-01-15T06:09:56;52.70;;;28.23;;
37065;SDS011;22981;43.080;25.550;2024-01-15T06:12:23;47.23;;;28.85;;
37065;SDS011;22981;43.080;25.550;2024-01-15T06:14:51;52.08;;;31.30;;
37065;SDS011;22981;43.080;25.550;2024-01-15T06:17:19;53.15;;;29.60;;
37065;SDS011;22981;43.080;25.550;2024-01-15T06:19:46;73.75;;;38.02;;
37065;SDS011;22981;43.080;25.550;2024-01-15T06:22:14;78.42;;;43.25;;
37065;SDS011;22981;43.080;25.550;2024-01-15T06:24:42;85.62;;;51.55;;
37065;SDS011;22981;43.080;25.550;2024-01-15T06:27:09;71.33;;;39.88;;
37065;SDS011;22981;43.080;25.550;2024-01-15T06:29:37;111.05;;;57.00;;
37065;SDS011;22981;43.080;25.550;2024-01-15T06:32:05;99.20;;;52.53;;
37065;SDS011;22981;43.080;25.550;2024-01-15T06:34:32;78.52;;;40.92;;
37065;SDS011;22981;43.080;25.550;2024-01-15T06:37:00;79.53;;;41.18;;
37065;SDS011;22981;43.080;25.550;2024-01-15T06:39:27;71.53;;;37.75;;
37065;SDS011;22981;43.080;25.550;2024-01-15T06:41:55;98.52;;;53.10;;
37065;SDS011;22981;43.080;25.550;2024-01-15T06:44:22;102.22;;;62.38;;
37065;SDS011;22981;43.080;25.550;2024-01-15T06:46:50;72.30;;;37.83;;
37065;SDS011;22981;43.080;25.550;2024-01-15T06:49:19;65.50;;;36.15;;
37065;SDS011;22981;43.080;25.550;2024-01-15T06:51:46;76.92;;;45.05;;
37065;SDS011;22981;43.080;25.550;2024-01-15T06:54:14;64.15;;;37.93;;
37065;SDS011;22981;43.080;25.550;2024-01-15T06:56:41;64.97;;;36.17;;
37065;SDS011;22981;43.080;25.550;2024-01-15T06:59:09;61.18;;;36.70;;
37065;SDS011;22981;43.080;25.550;2024-01-15T07:01:36;66.85;;;38.20;;
37065;SDS011;22981;43.080;25.550;2024-01-15T07:04:04;81.55;;;51.48;;
37065;SDS011;22981;43.080;25.550;2024-01-15T07:06:32;77.32;;;45.78;;
37065;SDS011;22981;43.080;25.550;2024-01-15T07:08:59;70.95;;;44.10;;
37065;SDS011;22981;43.080;25.550;2024-01-15T07:11:27;82.53;;;50.52;;
37065;SDS011;22981;43.080;25.550;2024-01-15T07:13:54;91.90;;;46.33;;
37065;SDS011;22981;43.080;25.550;2024-01-15T07:16:22;71.95;;;38.98;;
37065;SDS011;22981;43.080;25.550;2024-01-15T07:18:49;65.50;;;37.28;;
37065;SDS011;22981;43.080;25.550;2024-01-15T07:21:17;62.95;;;36.45;;
37065;SDS011;22981;43.080;25.550;2024-01-15T07:23:44;65.32;;;38.65;;
37065;SDS011;22981;43.080;25.550;2024-01-15T07:26:13;49.93;;;32.20;;
37065;SDS011;22981;43.080;25.550;2024-01-15T07:28:40;58.60;;;33.55;;
37065;SDS011;22981;43.080;25.550;2024-01-15T07:31:08;63.42;;;40.20;;
37065;SDS011;22981;43.080;25.550;2024-01-15T07:33:36;61.08;;;36.35;;
37065;SDS011;22981;43.080;25.550;2024-01-15T07:36:03;57.05;;;35.95;;
37065;SDS011;22981;43.080;25.550;2024-01-15T07:38:32;56.23;;;34.85;;
37065;SDS011;22981;43.080;25.550;2024-01-15T07:40:59;52.03;;;31.60;;
37065;SDS011;22981;43.080;25.550;2024-01-15T07:43:27;51.90;;;29.90;;
37065;SDS011;22981;43.080;25.550;2024-01-15T07:45:54;53.45;;;31.65;;
37065;SDS011;22981;43.080;25.550;2024-01-15T07:48:22;50.23;;;32.13;;
37065;SDS011;22981;43.080;25.550;2024-01-15T07:50:50;58.92;;;32.48;;
37065;SDS011;22981;43.080;25.550;2024-01-15T07:53:18;53.83;;;31.55;;
37065;SDS011;22981;43.080;25.550;2024-01-15T07:55:45;57.05;;;32.88;;
37065;SDS011;22981;43.080;25.550;2024-01-15T07:58:13;56.58;;;31.52;;
37065;SDS011;22981;43.080;25.550;2024-01-15T08:03:09;53.13;;;32.38;;
37065;SDS011;22981;43.080;25.550;2024-01-15T08:05:37;47.75;;;26.68;;
37065;SDS011;22981;43.080;25.550;2024-01-15T08:08:05;43.70;;;28.52;;
37065;SDS011;22981;43.080;25.550;2024-01-15T08:10:32;44.67;;;28.70;;
37065;SDS011;22981;43.080;25.550;2024-01-15T08:13:00;47.93;;;29.07;;
37065;SDS011;22981;43.080;25.550;2024-01-15T08:15:27;42.65;;;27.37;;
37065;SDS011;22981;43.080;25.550;2024-01-15T08:17:55;43.68;;;28.25;;
37065;SDS011;22981;43.080;25.550;2024-01-15T08:20:22;46.42;;;30.02;;
37065;SDS011;22981;43.080;25.550;2024-01-15T08:22:51;44.20;;;28.85;;
37065;SDS011;22981;43.080;25.550;2024-01-15T08:25:18;42.95;;;29.45;;
37065;SDS011;22981;43.080;25.550;2024-01-15T08:27:46;44.88;;;29.05;;
37065;SDS011;22981;43.080;25.550;2024-01-15T08:30:13;45.28;;;29.87;;
37065;SDS011;22981;43.080;25.550;2024-01-15T08:32:41;50.70;;;33.80;;
37065;SDS011;22981;43.080;25.550;2024-01-15T08:35:09;51.10;;;32.78;;
37065;SDS011;22981;43.080;25.550;2024-01-15T08:37:37;45.80;;;32.03;;
37065;SDS011;22981;43.080;25.550;2024-01-15T08:40:05;48.30;;;31.62;;
37065;SDS011;22981;43.080;25.550;2024-01-15T08:42:32;42.95;;;28.92;;
37065;SDS011;22981;43.080;25.550;2024-01-15T08:45:00;43.87;;;28.77;;
37065;SDS011;22981;43.080;25.550;2024-01-15T08:47:28;48.60;;;30.43;;
37065;SDS011;22981;43.080;25.550;2024-01-15T08:49:55;46.35;;;30.57;;
37065;SDS011;22981;43.080;25.550;2024-01-15T08:52:24;49.40;;;29.92;;
37065;SDS011;22981;43.080;25.550;2024-01-15T08:54:51;53.90;;;36.13;;
37065;SDS011;22981;43.080;25.550;2024-01-15T08:57:19;50.38;;;33.55;;
37065;SDS011;22981;43.080;25.550;2024-01-15T08:59:47;48.45;;;29.98;;
37065;SDS011;22981;43.080;25.550;2024-01-15T09:02:16;35.92;;;25.40;;
37065;SDS011;22981;43.080;25.550;2024-01-15T09:04:44;39.88;;;27.73;;
37065;SDS011;22981;43.080;25.550;2024-01-15T09:07:11;45.03;;;30.08;;
37065;SDS011;22981;43.080;25.550;2024-01-15T09:09:40;43.90;;;28.90;;
37065;SDS011;22981;43.080;25.550;2024-01-15T09:12:08;37.30;;;25.70;;
37065;SDS011;22981;43.080;25.550;2024-01-15T09:14:35;42.88;;;27.87;;
37065;SDS011;22981;43.080;25.550;2024-01-15T09:17:04;39.45;;;28.77;;
37065;SDS011;22981;43.080;25.550;2024-01-15T09:19:31;43.38;;;30.35;;
37065;SDS011;22981;43.080;25.550;2024-01-15T09:21:59;44.45;;;30.15;;
37065;SDS011;22981;43.080;25.550;2024-01-15T09:24:26;40.30;;;30.25;;
37065;SDS011;22981;43.080;25.550;2024-01-15T09:26:54;51.40;;;33.35;;
37065;SDS011;22981;43.080;25.550;2024-01-15T09:29:21;44.45;;;30.77;;
37065;SDS011;22981;43.080;25.550;2024-01-15T09:31:54;44.10;;;30.43;;
37065;SDS011;22981;43.080;25.550;2024-01-15T09:34:18;43.63;;;29.30;;
37065;SDS011;22981;43.080;25.550;2024-01-15T09:36:46;42.45;;;29.98;;
37065;SDS011;22981;43.080;25.550;2024-01-15T09:39:14;42.53;;;29.25;;
37065;SDS011;22981;43.080;25.550;2024-01-15T09:41:42;44.65;;;29.27;;
37065;SDS011;22981;43.080;25.550;2024-01-15T09:44:10;43.15;;;28.55;;
37065;SDS011;22981;43.080;25.550;2024-01-15T09:46:39;45.88;;;30.95;;
37065;SDS011;22981;43.080;25.550;2024-01-15T09:49:09;45.67;;;29.05;;
37065;SDS011;22981;43.080;25.550;2024-01-15T09:51:37;42.10;;;29.45;;
37065;SDS011;22981;43.080;25.550;2024-01-15T09:54:05;48.85;;;30.40;;
37065;SDS011;22981;43.080;25.550;2024-01-15T09:56:34;88.15;;;43.55;;
37065;SDS011;22981;43.080;25.550;2024-01-15T09:59:02;64.03;;;34.20;;
37065;SDS011;22981;43.080;25.550;2024-01-15T10:01:33;68.33;;;36.58;;
37065;SDS011;22981;43.080;25.550;2024-01-15T10:04:03;72.82;;;38.05;;
37065;SDS011;22981;43.080;25.550;2024-01-15T10:06:30;59.50;;;35.13;;
37065;SDS011;22981;43.080;25.550;2024-01-15T10:08:58;65.17;;;35.00;;
37065;SDS011;22981;43.080;25.550;2024-01-15T10:11:26;58.45;;;36.28;;
37065;SDS011;22981;43.080;25.550;2024-01-15T10:13:54;72.85;;;39.42;;
37065;SDS011;22981;43.080;25.550;2024-01-15T10:16:23;70.72;;;39.55;;
37065;SDS011;22981;43.080;25.550;2024-01-15T10:18:50;52.10;;;33.78;;
37065;SDS011;22981;43.080;25.550;2024-01-15T10:21:18;52.67;;;36.63;;
37065;SDS011;22981;43.080;25.550;2024-01-15T10:23:46;67.22;;;45.08;;
37065;SDS011;22981;43.080;25.550;2024-01-15T10:26:14;70.28;;;44.55;;
37065;SDS011;22981;43.080;25.550;2024-01-15T10:28:41;79.72;;;52.90;;
37065;SDS011;22981;43.080;25.550;2024-01-15T10:31:09;103.32;;;61.10;;
37065;SDS011;22981;43.080;25.550;2024-01-15T10:33:37;108.07;;;63.00;;
37065;SDS011;22981;43.080;25.550;2024-01-15T10:36:05;82.67;;;52.48;;
37065;SDS011;22981;43.080;25.550;2024-01-15T10:38:35;74.72;;;49.45;;
37065;SDS011;22981;43.080;25.550;2024-01-15T10:41:03;93.47;;;56.13;;
37065;SDS011;22981;43.080;25.550;2024-01-15T10:43:31;95.97;;;57.10;;
37065;SDS011;22981;43.080;25.550;2024-01-15T10:45:59;73.47;;;46.02;;
37065;SDS011;22981;43.080;25.550;2024-01-15T10:48:27;72.20;;;47.33;;
37065;SDS011;22981;43.080;25.550;2024-01-15T10:50:57;62.80;;;40.43;;
37065;SDS011;22981;43.080;25.550;2024-01-15T10:53:24;56.25;;;39.40;;
37065;SDS011;22981;43.080;25.550;2024-01-15T10:55:53;59.55;;;40.45;;
37065;SDS011;22981;43.080;25.550;2024-01-15T10:58:22;65.70;;;41.28;;
37065;SDS011;22981;43.080;25.550;2024-01-15T11:00:51;61.45;;;37.78;;
37065;SDS011;22981;43.080;25.550;2024-01-15T11:03:19;51.77;;;36.60;;
37065;SDS011;22981;43.080;25.550;2024-01-15T11:05:47;48.75;;;35.65;;
37065;SDS011;22981;43.080;25.550;2024-01-15T11:08:16;53.90;;;36.75;;
37065;SDS011;22981;43.080;25.550;2024-01-15T11:10:46;49.58;;;35.35;;
37065;SDS011;22981;43.080;25.550;2024-01-15T11:13:22;43.15;;;29.20;;
37065;SDS011;22981;43.080;25.550;2024-01-15T11:16:03;27.80;;;18.50;;
37065;SDS011;22981;43.080;25.550;2024-01-15T11:18:28;19.95;;;13.18;;
37065;SDS011;22981;43.080;25.550;2024-01-15T11:23:47;13.62;;;10.32;;
37065;SDS011;22981;43.080;25.550;2024-01-15T11:31:58;13.80;;;9.60;;
37065;SDS011;22981;43.080;25.550;2024-01-15T11:37:27;10.03;;;6.10;;
37065;SDS011;22981;43.080;25.550;2024-01-15T11:40:00;7.58;;;5.75;;
37065;SDS011;22981;43.080;25.550;2024-01-15T11:42:33;7.03;;;4.97;;
37065;SDS011;22981;43.080;25.550;2024-01-15T11:45:01;9.10;;;6.33;;
37065;SDS011;22981;43.080;25.550;2024-01-15T11:50:15;8.80;;;5.10;;
37065;SDS011;22981;43.080;25.550;2024-01-15T11:52:45;6.62;;;5.20;;
37065;SDS011;22981;43.080;25.550;2024-01-15T11:55:19;6.13;;;4.00;;
37065;SDS011;22981;43.080;25.550;2024-01-15T11:57:57;18.70;;;3.60;;
37065;SDS011;22981;43.080;25.550;2024-01-15T12:00:26;3.60;;;2.70;;
37065;SDS011;22981;43.080;25.550;2024-01-15T12:02:54;5.60;;;3.17;;
37065;SDS011;22981;43.080;25.550;2024-01-15T12:05:23;3.20;;;2.60;;
37065;SDS011;22981;43.080;25.550;2024-01-15T12:07:51;3.12;;;2.40;;
37065;SDS011;22981;43.080;25.550;2024-01-15T12:10:19;3.12;;;2.58;;
37065;SDS011;22981;43.080;25.550;2024-01-15T12:13:10;8.08;;;5.00;;
37065;SDS011;22981;43.080;25.550;2024-01-15T12:15:39;5.20;;;2.98;;
37065;SDS011;22981;43.080;25.550;2024-01-15T12:18:14;3.45;;;1.72;;
37065;SDS011;22981;43.080;25.550;2024-01-15T12:20:43;4.03;;;3.05;;
37065;SDS011;22981;43.080;25.550;2024-01-15T12:23:14;3.92;;;2.67;;
37065;SDS011;22981;43.080;25.550;2024-01-15T12:25:44;4.60;;;2.77;;
37065;SDS011;22981;43.080;25.550;2024-01-15T12:28:12;3.17;;;2.47;;
37065;SDS011;22981;43.080;25.550;2024-01-15T12:30:41;4.30;;;2.70;;
37065;SDS011;22981;43.080;25.550;2024-01-15T12:33:10;3.72;;;2.70;;
37065;SDS011;22981;43.080;25.550;2024-01-15T12:35:38;3.70;;;2.77;;
37065;SDS011;22981;43.080;25.550;2024-01-15T12:38:05;3.77;;;2.60;;
37065;SDS011;22981;43.080;25.550;2024-01-15T12:40:33;97.33;;;32.17;;
37065;SDS011;22981;43.080;25.550;2024-01-15T12:43:01;7.47;;;4.35;;
37065;SDS011;22981;43.080;25.550;2024-01-15T12:45:29;4.35;;;3.02;;
37065;SDS011;22981;43.080;25.550;2024-01-15T12:47:57;5.28;;;3.40;;
37065;SDS011;22981;43.080;25.550;2024-01-15T12:50:26;6.03;;;3.47;;
37065;SDS011;22981;43.080;25.550;2024-01-15T12:52:53;4.90;;;3.15;;
37065;SDS011;22981;43.080;25.550;2024-01-15T12:55:21;6.75;;;3.92;;
37065;SDS011;22981;43.080;25.550;2024-01-15T12:57:49;4.33;;;3.00;;
37065;SDS011;22981;43.080;25.550;2024-01-15T13:00:18;4.05;;;3.20;;
37065;SDS011;22981;43.080;25.550;2024-01-15T13:02:46;6.45;;;3.20;;
37065;SDS011;22981;43.080;25.550;2024-01-15T13:05:15;5.47;;;3.30;;
37065;SDS011;22981;43.080;25.550;2024-01-15T13:07:44;4.40;;;3.77;;
37065;SDS011;22981;43.080;25.550;2024-01-15T13:10:11;6.75;;;3.83;;
37065;SDS011;22981;43.080;25.550;2024-01-15T13:12:40;5.33;;;3.40;;
37065;SDS011;22981;43.080;25.550;2024-01-15T13:15:07;4.92;;;3.08;;
37065;SDS011;22981;43.080;25.550;2024-01-15T13:17:38;5.15;;;3.60;;
37065;SDS011;22981;43.080;25.550;2024-01-15T13:20:07;6.55;;;3.80;;
37065;SDS011;22981;43.080;25.550;2024-01-15T13:22:36;6.35;;;4.30;;
37065;SDS011;22981;43.080;25.550;2024-01-15T13:25:05;5.67;;;4.03;;
37065;SDS011;22981;43.080;25.550;2024-01-15T13:27:34;6.12;;;4.05;;
37065;SDS011;22981;43.080;25.550;2024-01-15T13:30:02;5.25;;;4.08;;
37065;SDS011;22981;43.080;25.550;2024-01-15T13:32:31;8.55;;;3.87;;
37065;SDS011;22981;43.080;25.550;2024-01-15T13:34:59;5.47;;;4.00;;
37065;SDS011;22981;43.080;25.550;2024-01-15T13:37:28;7.65;;;3.37;;
37065;SDS011;22981;43.080;25.550;2024-01-15T13:39:55;5.50;;;3.50;;
37065;SDS011;22981;43.080;25.550;2024-01-15T13:42:23;4.20;;;3.50;;
37065;SDS011;22981;43.080;25.550;2024-01-15T13:44:52;4.78;;;3.40;;
37065;SDS011;22981;43.080;25.550;2024-01-15T13:47:20;4.85;;;3.87;;
37065;SDS011;22981;43.080;25.550;2024-01-15T13:49:48;5.00;;;3.35;;
37065;SDS011;22981;43.080;25.550;2024-01-15T13:52:15;4.83;;;3.37;;
37065;SDS011;22981;43.080;25.550;2024-01-15T13:54:43;5.90;;;4.80;;
37065;SDS011;22981;43.080;25.550;2024-01-15T13:57:11;12.65;;;8.03;;
37065;SDS011;22981;43.080;25.550;2024-01-15T13:59:38;18.27;;;10.25;;
37065;SDS011;22981;43.080;25.550;2024-01-15T14:02:06;16.65;;;9.25;;
37065;SDS011;22981;43.080;25.550;2024-01-15T14:04:33;11.93;;;8.83;;
37065;SDS011;22981;43.080;25.550;2024-01-15T14:07:01;8.35;;;5.83;;
37065;SDS011;22981;43.080;25.550;2024-01-15T14:09:29;6.67;;;4.65;;
37065;SDS011;22981;43.080;25.550;2024-01-15T14:11:57;5.80;;;4.20;;
37065;SDS011;22981;43.080;25.550;2024-01-15T14:14:25;5.42;;;4.10;;
37065;SDS011;22981;43.080;25.550;2024-01-15T14:16:52;5.72;;;3.70;;
37065;SDS011;22981;43.080;25.550;2024-01-15T14:19:20;5.83;;;4.03;;
37065;SDS011;22981;43.080;25.550;2024-01-15T14:21:48;5.42;;;3.83;;
37065;SDS011;22981;43.080;25.550;2024-01-15T14:24:15;6.10;;;4.28;;
37065;SDS011;22981;43.080;25.550;2024-01-15T14:26:44;5.12;;;3.98;;
37065;SDS011;22981;43.080;25.550;2024-01-15T14:29:12;8.28;;;3.92;;
37065;SDS011;22981;43.080;25.550;2024-01-15T14:31:39;9.75;;;5.33;;
37065;SDS011;22981;43.080;25.550;2024-01-15T14:34:07;10.03;;;5.30;;